Dulac, Louisiana
Current Conditions -  °F | °C
As of 2:35 AM on Tuesday 27 Jan 2015 (Local Time) from KHUM Reporting Station
Haze Haze  
Wind Chill: 46°   Ceiling: Unl
Heat Index: 46°   Visibility: 5mi
Dew Point: 45°   Wind: 3mph
Humidity: 99%   Direction: 240°WSW
Pressure: 30.1"   Gusts: NA
Location:  29.39°N, 90.71°W
Report Text: KHUM 270835Z AUTO 24003KT 5SM BR CLR 08/07 A3010 RMK AO2 T00750074
Loading
Personal Weather Stations






























Interactive Weather Map New forecast layout! Learn more

10-Day Weather Forecast

Advertisements
Track Severe Weather on mobile